Other Surface Observations
Issued by NWS

Home | Current Version | Previous Version | Text Only | Print | Product List | Glossary On
Versions: 1 2 3 4 5 6 7 8 9 10 11 12 13 14 15 16 17 18 19 20 21 22 23 24 25 26 27 28 29 30 31 32 33 34 35 36 37 38 39 40 41 42 43 44 45 46 47 48 49 50
000
SXUS52 KWBC 271229
OSOGX
:SHEF ENCODED 6-MINUTE NOS MET DATA
:NATIONAL WATER LEVEL OBSERVATION NETWORK (NWLON)
:TA(AIR TEMP DEG F)  SLP(SEA LEVEL PRESSURE INCHES)
:UD(WIND DIRECTION WHOLE DEGREES) US (WIND SPEED MPH)
:TW(WATER TEMP DEG F) UG(WIND GUSTS MPH) WC(CONDUCTIVITY uMHOS/CM)
:-9999 (MISSING VALUES)
:PROVIDED BY DOC/NOAA/NOS/CO-OPS, (301) 713-2540
:corms@noaa.gov
.E NPSF1 20190527 Z DH1212/TAIRG/DIN06/   78/   78
.E NPSF1 20190527 Z DH1212/PLIRG/DIN06/30.08/30.08
.E NPSF1 20190527 Z DH1212/TWIRG/DIN06/   83/   83
.E FMRF1 20190527 Z DH1212/TAIRG/DIN06/   77/   77
.E FMRF1 20190527 Z DH1212/PLIRG/DIN06/30.08/30.09
.E FMRF1 20190527 Z DH1212/USIRG/DIN06/    4/    4
.E FMRF1 20190527 Z DH1212/UDIRG/DIN06/   27/   19
.E FMRF1 20190527 Z DH1212/UGIRG/DIN06/    4/    4
.E FMRF1 20190527 Z DH1212/TWIRG/DIN06/   82/   82
.E PMAF1 20190527 Z DH1200/TAIRG/DIN06/   75/   75
.E PMAF1 20190527 Z DH1200/PLIRG/DIN06/30.09/30.09
.E PMAF1 20190527 Z DH1200/TWIRG/DIN06/   84/   84
.E MTBF1 20190527 Z DH1212/TAIRG/DIN06/   77/   78
.E MTBF1 20190527 Z DH1212/PLIRG/DIN06/30.10/30.10
.E MTBF1 20190527 Z DH1212/USIRG/DIN06/    8/    7
.E MTBF1 20190527 Z DH1212/UDIRG/DIN06/  163/  156
.E MTBF1 20190527 Z DH1212/UGIRG/DIN06/    9/    9
.E SAPF1 20190527 Z DH1206/TAIRG/DIN06/   79/   79
.E SAPF1 20190527 Z DH1206/PLIRG/DIN06/30.10/30.10
.E SAPF1 20190527 Z DH1206/USIRG/DIN06/    5/    6
.E SAPF1 20190527 Z DH1206/UDIRG/DIN06/  166/  181
.E SAPF1 20190527 Z DH1206/UGIRG/DIN06/    7/    7
.E SAPF1 20190527 Z DH1206/TWIRG/DIN06/   83/   83
.A GCTF1 20190527 Z DH1212/TAIRG    78/UGIRG -9999/PLIRG 30.09/UDIRG -9999/USIRG -9999/TWIRG -9999/WCIRG -9999
.E OPTF1 20190527 Z DH1200/TAIRG/DIN06/   78/   78/   79/   79
.E OPTF1 20190527 Z DH1200/PLIRG/DIN06/30.09/30.09/30.09/30.10
.E OPTF1 20190527 Z DH1200/USIRG/DIN06/    6/    7/    6/    6
.E OPTF1 20190527 Z DH1200/UDIRG/DIN06/  170/  170/  170/  179
.E OPTF1 20190527 Z DH1200/UGIRG/DIN06/    9/    9/    8/    8
.E OPTF1 20190527 Z DH1200/TWIRG/DIN06/   83/   83/   83/   83
.A MCYF1 20190527 Z DH1218/TAIRP -9999/UGIRP -9999/PLIRP -9999/UDIRP -9999/USIRP -9999/TWIRP    86/WCIRG -9999
.E MCYF1 20190527 Z DH1212/TWIRG/DIN06/   86/   86
.A TSHF1 20190527 Z DH1212/TAIRP -9999/UGIRP     5/PLIRP -9999/UDIRP   110/USIRP     3/TWIRP -9999/WCIRG -9999
.A TPAF1 20190527 Z DH1218/TAIRP -9999/UGIRP     5/PLIRP -9999/UDIRP   180/USIRP     3/TWIRP -9999/WCIRG -9999
.E CWBF1 20190527 Z DH1206/TAIRG/DIN06/   79/   79
.E CWBF1 20190527 Z DH1206/PLIRG/DIN06/30.09/30.10
.E CWBF1 20190527 Z DH1206/USIRG/DIN06/    5/    4
.E CWBF1 20190527 Z DH1206/UDIRG/DIN06/  122/  128
.E CWBF1 20190527 Z DH1206/UGIRG/DIN06/    8/    8
.E CWBF1 20190527 Z DH1206/TWIRG/DIN06/   85/   85
.E CKYF1 20190527 Z DH1212/TAIRG/DIN06/   82/   82
.E CKYF1 20190527 Z DH1212/PLIRG/DIN06/30.07/30.07
.E CKYF1 20190527 Z DH1212/USIRG/DIN06/    5/    6
.E CKYF1 20190527 Z DH1212/UDIRG/DIN06/  241/  246
.E CKYF1 20190527 Z DH1212/UGIRG/DIN06/    6/    7
.E CKYF1 20190527 Z DH1212/TWIRG/DIN06/   87/   87
.E APCF1 20190527 Z DH1206/TAIRG/DIN06/   78/   78/   78
.E APCF1 20190527 Z DH1206/PLIRG/DIN06/30.08/30.09/30.09
.E APCF1 20190527 Z DH1206/USIRG/DIN06/    2/    3/    3
.E APCF1 20190527 Z DH1206/UDIRG/DIN06/   23/   26/   42
.E APCF1 20190527 Z DH1206/UGIRG/DIN06/    3/    4/    4
.E APCF1 20190527 Z DH1206/TWIRG/DIN06/   84/   84/   84
.E PACF1 20190527 Z DH1212/USIRG/DIN06/    4/    3
.E PACF1 20190527 Z DH1212/UDIRG/DIN06/   15/   25
.E PACF1 20190527 Z DH1212/UGIRG/DIN06/    5/    4
.E PACF1 20190527 Z DH1212/TWIRG/DIN06/   85/   85
.E PCBF1 20190527 Z DH1206/TAIRG/DIN06/   78/   78
.E PCBF1 20190527 Z DH1206/PLIRG/DIN06/30.09/30.09
.E PCBF1 20190527 Z DH1206/USIRG/DIN06/    4/    4
.E PCBF1 20190527 Z DH1206/UDIRG/DIN06/   27/   23
.E PCBF1 20190527 Z DH1206/UGIRG/DIN06/    4/    4
.E PCBF1 20190527 Z DH1206/TWIRG/DIN06/   82/   82
.A PCLF1 20190527 Z DH1218/TAIRP    82/UGIRP     7/PLIRP 30.07/UDIRP   162/USIRP     4/TWIRP    84/WCIRP -9999
.A PCLF1 20190527 Z DH1212/TAIRG    82/UGIRG     8/PLIRG 30.07/UDIRG   178/USIRG     5/TWIRG    84/WCIRG -9999
.A WBYA1 20190527 Z DH1218/TAIRP -9999/UGIRP -9999/PLIRP -9999/UDIRP -9999/USIRP -9999/TWIRP    82/WCIRG -9999
.A FMOA1 20190527 Z DH1218/TAIRP    81/UGIRP    21/PLIRP 30.05/UDIRP   176/USIRP    18/TWIRP -9999/WCIRP -9999
.A DILA1 20190527 Z DH1212/TAIRP    82/UGIRP    19/PLIRP 30.08/UDIRP   170/USIRP    13/TWIRP    86/WCIRP -9999
.E DILA1 20190527 Z DH1206/TAIRG/DIN06/   82/   82
.E DILA1 20190527 Z DH1206/PLIRG/DIN06/30.07/30.08
.E DILA1 20190527 Z DH1206/USIRG/DIN06/   17/   13
.E DILA1 20190527 Z DH1206/UDIRG/DIN06/  165/  170
.E DILA1 20190527 Z DH1206/UGIRG/DIN06/   19/   20
.E DILA1 20190527 Z DH1206/TWIRG/DIN06/   86/   86
.E MBPA1 20190527 Z DH1218/TAIRP/DIN06/   83/   83
.E MBPA1 20190527 Z DH1212/TAIRG/DIN06/   83/   83
.E MCGA1 20190527 Z DH1212/TAIRG/DIN06/   81/   81
.E MCGA1 20190527 Z DH1212/PLIRG/DIN06/30.07/30.07
.E MCGA1 20190527 Z DH1212/USIRG/DIN06/    5/    4
.E MCGA1 20190527 Z DH1212/UDIRG/DIN06/  129/  133
.E MCGA1 20190527 Z DH1212/UGIRG/DIN06/    7/    7
.E MCGA1 20190527 Z DH1212/TWIRG/DIN06/   85/   84
.E PTOA1 20190527 Z DH1218/TAIRP/DIN06/   80/   81
.E PTOA1 20190527 Z DH1212/TAIRG/DIN06/   80/   80
.E OBLA1 20190527 Z DH1206/TAIRG/DIN06/   79/   79
.E OBLA1 20190527 Z DH1206/PLIRG/DIN06/30.06/30.06
.E OBLA1 20190527 Z DH1206/WCIRG/DIN06/ 3540/ 4260
.E OBLA1 20190527 Z DH1206/TWIRG/DIN06/   81/   81
.E PTBM6 20190527 Z DH1206/TAIRG/DIN06/   80/   80
.E PTBM6 20190527 Z DH1206/PLIRG/DIN06/30.04/30.05
.E PTBM6 20190527 Z DH1206/USIRG/DIN06/   14/   13
.E PTBM6 20190527 Z DH1206/UDIRG/DIN06/  157/  161
.E PTBM6 20190527 Z DH1206/UGIRG/DIN06/   17/   16
.E PNLM6 20190527 Z DH1206/TWIRG/DIN06/   82/   82
.E WYCM6 20190527 Z DH1206/TAIRG/DIN06/   81/   81
.E WYCM6 20190527 Z DH1206/PLIRG/DIN06/30.05/30.05
.E WYCM6 20190527 Z DH1206/USIRG/DIN06/   13/   11
.E WYCM6 20190527 Z DH1206/UDIRG/DIN06/  172/  176
.E WYCM6 20190527 Z DH1206/UGIRG/DIN06/   16/   18
.E WYCM6 20190527 Z DH1206/TWIRG/DIN06/   83/   83
.E PILL1 20190527 Z DH1212/TAIRG/DIN06/   76/   76
.E PILL1 20190527 Z DH1212/PLIRG/DIN06/30.04/30.05
.E PILL1 20190527 Z DH1212/USIRG/DIN06/    3/    3
.E PILL1 20190527 Z DH1212/UDIRG/DIN06/  174/  180
.E PILL1 20190527 Z DH1212/UGIRG/DIN06/    4/    4
.E PILL1 20190527 Z DH1212/TWIRG/DIN06/   73/   73
.E PSTL1 20190527 Z DH1206/TAIRG/DIN06/   79/   79
.E PSTL1 20190527 Z DH1206/PLIRG/DIN06/30.06/30.06
.E PSTL1 20190527 Z DH1206/TWIRG/DIN06/   73/   73
.E SHBL1 20190527 Z DH1206/TAIRG/DIN06/   78/   78/   78
.E SHBL1 20190527 Z DH1206/PLIRG/DIN06/30.04/30.04/30.04
.E SHBL1 20190527 Z DH1206/USIRG/DIN06/   11/   12/   11
.E SHBL1 20190527 Z DH1206/UDIRG/DIN06/  161/  161/  159
.E SHBL1 20190527 Z DH1206/UGIRG/DIN06/   15/   16/   16
.E SHBL1 20190527 Z DH1206/TWIRG/DIN06/   85/   85/   85
.E GISL1 20190527 Z DH1212/TAIRG/DIN06/   79/   79
.E GISL1 20190527 Z DH1212/PLIRG/DIN06/30.04/30.04
.E GISL1 20190527 Z DH1212/USIRG/DIN06/    6/    7
.E GISL1 20190527 Z DH1212/UDIRG/DIN06/  177/  173
.E GISL1 20190527 Z DH1212/UGIRG/DIN06/   10/   10
.E GISL1 20190527 Z DH1212/TWIRG/DIN06/   84/   84
.A NWCL1 20190527 Z DH1212/TAIRG    80/UGIRG     5/PLIRG 30.01/UDIRG   141/USIRG     4/TWIRG    81/WCIRG -9999
.A CARL1 20190527 Z DH1218/TAIRP -9999/UGIRP -9999/PLIRP -9999/UDIRP -9999/USIRP -9999/TWIRP    73/WCIRG -9999
.E CARL1 20190527 Z DH1212/TWIRG/DIN06/   73/   73
.E BYGL1 20190527 Z DH1206/TAIRG/DIN06/   75/   76
.E BYGL1 20190527 Z DH1206/PLIRG/DIN06/30.04/30.04
.E BYGL1 20190527 Z DH1206/USIRG/DIN06/    3/    5
.E BYGL1 20190527 Z DH1206/UDIRG/DIN06/  143/  141
.E BYGL1 20190527 Z DH1206/UGIRG/DIN06/    6/    7
.E BYGL1 20190527 Z DH1206/TWIRG/DIN06/   86/   86
.A FREL1 20190527 Z DH1218/TAIRP    77/UGIRP     7/PLIRP 30.01/UDIRP   170/USIRP     5/TWIRP -9999/WCIRP -9999
.A TESL1 20190527 Z DH1212/TAIRG    76/UGIRG     4/PLIRG 30.02/UDIRG   145/USIRG     2/TWIRG    77/WCIRG -9999
.E AMRL1 20190527 Z DH1212/TAIRG/DIN06/   78/   78
.E AMRL1 20190527 Z DH1212/PLIRG/DIN06/30.02/30.02
.E AMRL1 20190527 Z DH1212/USIRG/DIN06/    4/    2
.E AMRL1 20190527 Z DH1212/UDIRG/DIN06/  136/  150
.E AMRL1 20190527 Z DH1212/UGIRG/DIN06/    6/    5
.E AMRL1 20190527 Z DH1212/TWIRG/DIN06/   77/   77
.A EINL1 20190527 Z DH1218/TAIRP    80/UGIRP    14/PLIRP 30.01/UDIRP   207/USIRP    12/TWIRP    77/WCIRP -9999
.A EINL1 20190527 Z DH1212/TAIRG    80/UGIRG    14/PLIRG 30.01/UDIRG   201/USIRG    12/TWIRG    77/WCIRG   300
.A FRWL1 20190527 Z DH1212/TAIRG    79/UGIRG    18/PLIRG 30.00/UDIRG   156/USIRG    14/TWIRG    84/WCIRG -9999
.A LCLL1 20190527 Z DH1212/TAIRG    77/UGIRG -9999/PLIRG 30.00/UDIRG -9999/USIRG -9999/TWIRG    77/WCIRG -9999
.E BKTL1 20190527 Z DH1206/TWIRG/DIN06/   80/   80
.E CAPL1 20190527 Z DH1218/TAIRP/DIN06/   80/   80
.E CAPL1 20190527 Z DH1218/PLIRP/DIN06/29.97/29.98
.E CAPL1 20190527 Z DH1218/USIRP/DIN06/   17/   17
.E CAPL1 20190527 Z DH1218/UDIRP/DIN06/  206/  208
.E CAPL1 20190527 Z DH1218/UGIRP/DIN06/   20/   19
.E CAPL1 20190527 Z DH1218/TWIRP/DIN06/   81/   81
.E CAPL1 20190527 Z DH1206/TAIRG/DIN06/   80/   80
.E CAPL1 20190527 Z DH1206/PLIRG/DIN06/29.97/29.97
.E CAPL1 20190527 Z DH1206/USIRG/DIN06/   17/   16
.E CAPL1 20190527 Z DH1206/UDIRG/DIN06/  199/  194
.E CAPL1 20190527 Z DH1206/UGIRG/DIN06/   21/   19
.E CAPL1 20190527 Z DH1206/TWIRG/DIN06/   81/   81
.E PORT2 20190527 Z DH1206/TAIRG/DIN06/   78/   79
.E PORT2 20190527 Z DH1206/PLIRG/DIN06/30.01/30.01
.E PORT2 20190527 Z DH1206/USIRG/DIN06/    5/    7
.E PORT2 20190527 Z DH1206/UDIRG/DIN06/  183/  174
.E PORT2 20190527 Z DH1206/UGIRG/DIN06/    9/   11
.E PORT2 20190527 Z DH1206/TWIRG/DIN06/   81/   81
.E SBPT2 20190527 Z DH1206/TAIRG/DIN06/   79/   79
.E SBPT2 20190527 Z DH1206/PLIRG/DIN06/30.04/30.04
.E SBPT2 20190527 Z DH1206/USIRG/DIN06/   15/   11
.E SBPT2 20190527 Z DH1206/UDIRG/DIN06/  172/  178
.E SBPT2 20190527 Z DH1206/UGIRG/DIN06/   18/   19
.E SBPT2 20190527 Z DH1206/TWIRG/DIN06/   82/   82
.E MGPT2 20190527 Z DH1200/TAIRG/DIN06/   79/   79/   79
.E MGPT2 20190527 Z DH1200/PLIRG/DIN06/29.98/29.98/29.98
.E MGPT2 20190527 Z DH1200/USIRG/DIN06/    6/    6/    5
.E MGPT2 20190527 Z DH1200/UDIRG/DIN06/  183/  175/  189
.E MGPT2 20190527 Z DH1200/UGIRG/DIN06/   11/    9/    9
.E MGPT2 20190527 Z DH1200/WCIRG/DIN06/  630/  630/  630
.E MGPT2 20190527 Z DH1200/TWIRG/DIN06/   82/   82/   82
.A NCHT2 20190527 Z DH1212/TAIRG    78/UGIRG     6/PLIRG 29.96/UDIRG   190/USIRG     2/TWIRG    82/WCIRG -9999
.E HIST2 20190527 Z DH1206/TAIRG/DIN06/   79/   79
.E HIST2 20190527 Z DH1206/PLIRG/DIN06/29.97/29.97
.E HIST2 20190527 Z DH1206/USIRG/DIN06/    9/    9
.E HIST2 20190527 Z DH1206/UDIRG/DIN06/  181/  178
.E HIST2 20190527 Z DH1206/UGIRG/DIN06/   17/   13
.E HIST2 20190527 Z DH1206/TWIRG/DIN06/   82/   82
.E TXPT2 20190527 Z DH1212/TAIRG/DIN06/   79/   79
.E TXPT2 20190527 Z DH1212/PLIRG/DIN06/29.98/29.98
.E TXPT2 20190527 Z DH1212/USIRG/DIN06/   18/   17
.E TXPT2 20190527 Z DH1212/UDIRG/DIN06/  180/  180
.E TXPT2 20190527 Z DH1212/UGIRG/DIN06/   22/   23
.E TXPT2 20190527 Z DH1212/TWIRG/DIN06/   81/   81
.A RLOT2 20190527 Z DH1212/TAIRG    80/UGIRG    17/PLIRG 29.98/UDIRG   199/USIRG    12/TWIRG    81/WCIRG -9999
.E EPTT2 20190527 Z DH1206/TAIRG/DIN06/   80/   80
.E EPTT2 20190527 Z DH1206/PLIRG/DIN06/29.96/29.96
.E EPTT2 20190527 Z DH1206/USIRG/DIN06/   13/   15
.E EPTT2 20190527 Z DH1206/UDIRG/DIN06/  190/  196
.E EPTT2 20190527 Z DH1206/UGIRG/DIN06/   19/   19
.E EPTT2 20190527 Z DH1206/WCIRG/DIN06/ 6270/ 6270
.E EPTT2 20190527 Z DH1206/TWIRG/DIN06/   82/   82
.E GNJT2 20190527 Z DH1206/TAIRG/DIN06/   83/   83
.E GNJT2 20190527 Z DH1206/PLIRG/DIN06/29.94/29.95
.E GNJT2 20190527 Z DH1206/USIRG/DIN06/   19/   17
.E GNJT2 20190527 Z DH1206/UDIRG/DIN06/  195/  189
.E GNJT2 20190527 Z DH1206/UGIRG/DIN06/   22/   21
.E GNJT2 20190527 Z DH1206/TWIRG/DIN06/   82/   82
.A GTOT2 20190527 Z DH1212/TAIRG    80/UGIRG    13/PLIRG 29.97/UDIRG   194/USIRG     9/TWIRG    82/WCIRG -9999
.E GRRT2 20190527 Z DH1206/TAIRG/DIN06/   79/   79
.E GRRT2 20190527 Z DH1206/PLIRG/DIN06/29.95/29.96
.E GRRT2 20190527 Z DH1206/USIRG/DIN06/   10/   10
.E GRRT2 20190527 Z DH1206/UDIRG/DIN06/  220/  208
.E GRRT2 20190527 Z DH1206/UGIRG/DIN06/   15/   12
.E GRRT2 20190527 Z DH1206/TWIRG/DIN06/   81/   81
.A LUIT2 20190527 Z DH1218/TAIRP -9999/UGIRP    14/PLIRP 29.97/UDIRP   170/USIRP    11/TWIRP    82/WCIRP -9999
.E FCGT2 20190527 Z DH1200/TAIRG/DIN06/   80/   80
.E FCGT2 20190527 Z DH1200/PLIRG/DIN06/29.97/29.98
.E FCGT2 20190527 Z DH1200/USIRG/DIN06/   16/   16
.E FCGT2 20190527 Z DH1200/UDIRG/DIN06/  185/  188
.E FCGT2 20190527 Z DH1200/UGIRG/DIN06/   20/   21
.E FCGT2 20190527 Z DH1200/TWIRG/DIN06/   79/   80
.E FPST2 20190527 Z DH1206/TAIRG/DIN06/   80/   80
.E FPST2 20190527 Z DH1206/PLIRG/DIN06/29.95/29.95
.E FPST2 20190527 Z DH1206/USIRG/DIN06/   18/   18
.E FPST2 20190527 Z DH1206/UDIRG/DIN06/  172/  156
.E FPST2 20190527 Z DH1206/UGIRG/DIN06/   21/   22
.E FPST2 20190527 Z DH1206/TWIRG/DIN06/   80/   80
.E SDRT2 20190527 Z DH1206/TAIRG/DIN06/   81/   81
.E SDRT2 20190527 Z DH1206/PLIRG/DIN06/29.93/29.94
.E SDRT2 20190527 Z DH1206/USIRG/DIN06/   13/   12
.E SDRT2 20190527 Z DH1206/UDIRG/DIN06/  140/  140
.E SDRT2 20190527 Z DH1206/UGIRG/DIN06/   16/   15
.E SDRT2 20190527 Z DH1206/TWIRG/DIN06/   81/   81
.E EMAT2 20190527 Z DH1206/TAIRG/DIN06/   79/   79
.E EMAT2 20190527 Z DH1206/PLIRG/DIN06/29.93/29.93
.E EMAT2 20190527 Z DH1206/USIRG/DIN06/   14/   15
.E EMAT2 20190527 Z DH1206/UDIRG/DIN06/  170/  170
.E EMAT2 20190527 Z DH1206/UGIRG/DIN06/   20/   19
.E EMAT2 20190527 Z DH1206/TWIRG/DIN06/   81/   81
.E VCAT2 20190527 Z DH1206/TAIRG/DIN06/   78/   78
.E VCAT2 20190527 Z DH1206/PLIRG/DIN06/29.93/29.93
.E VCAT2 20190527 Z DH1206/USIRG/DIN06/   14/   13
.E VCAT2 20190527 Z DH1206/UDIRG/DIN06/  164/  161
.E VCAT2 20190527 Z DH1206/UGIRG/DIN06/   16/   16
.E VCAT2 20190527 Z DH1206/TWIRG/DIN06/   79/   79
.E PCNT2 20190527 Z DH1206/TAIRG/DIN06/   79/   79
.E PCNT2 20190527 Z DH1206/PLIRG/DIN06/29.93/29.93
.E PCNT2 20190527 Z DH1206/USIRG/DIN06/   21/   21
.E PCNT2 20190527 Z DH1206/UDIRG/DIN06/  162/  168
.E PCNT2 20190527 Z DH1206/UGIRG/DIN06/   24/   24
.E PCNT2 20190527 Z DH1206/TWIRG/DIN06/   82/   82
.A MBET2 20190527 Z DH1212/TAIRG    80/UGIRG    23/PLIRG 29.90/UDIRG   197/USIRG    21/TWIRG -9999/WCIRG -9999
.E AWRT2 20190527 Z DH1206/TAIRG/DIN06/   80/   80
.E AWRT2 20190527 Z DH1206/PLIRG/DIN06/29.93/29.93
.E AWRT2 20190527 Z DH1206/USIRG/DIN06/   14/   16
.E AWRT2 20190527 Z DH1206/UDIRG/DIN06/  157/  167
.E AWRT2 20190527 Z DH1206/UGIRG/DIN06/   18/   22
.E AWRT2 20190527 Z DH1206/TWIRG/DIN06/   80/   80
.E RCPT2 20190527 Z DH1206/TAIRG/DIN06/   80/   80
.E RCPT2 20190527 Z DH1206/PLIRG/DIN06/29.91/29.92
.E RTAT2 20190527 Z DH1200/TAIRG/DIN06/   80/   80/   80
.E RTAT2 20190527 Z DH1200/PLIRG/DIN06/29.92/29.92/29.93
.E RTAT2 20190527 Z DH1200/USIRG/DIN06/    7/   12/   11
.E RTAT2 20190527 Z DH1200/UDIRG/DIN06/  157/  164/  159
.E RTAT2 20190527 Z DH1200/UGIRG/DIN06/   16/   17/   15
.E RTAT2 20190527 Z DH1200/TWIRG/DIN06/   83/   83/   82
.E ANPT2 20190527 Z DH1206/TAIRG/DIN06/   80/   80
.E ANPT2 20190527 Z DH1206/PLIRG/DIN06/29.89/29.90
.E ANPT2 20190527 Z DH1206/USIRG/DIN06/   19/   20
.E ANPT2 20190527 Z DH1206/UDIRG/DIN06/  142/  135
.E ANPT2 20190527 Z DH1206/UGIRG/DIN06/   23/   22
.E ANPT2 20190527 Z DH1206/TWIRG/DIN06/   82/   82
.E NUET2 20190527 Z DH1206/PLIRG/DIN06/29.92/29.92
.E NUET2 20190527 Z DH1206/USIRG/DIN06/   14/   15
.E NUET2 20190527 Z DH1206/UDIRG/DIN06/  150/  136
.E NUET2 20190527 Z DH1206/UGIRG/DIN06/   18/   18
.E NUET2 20190527 Z DH1206/TWIRG/DIN06/   81/   81
.E TAQT2 20190527 Z DH1212/TAIRG/DIN06/   79/   80
.E TAQT2 20190527 Z DH1212/PLIRG/DIN06/29.90/29.90
.E TAQT2 20190527 Z DH1212/TWIRG/DIN06/   82/   82
.A PACT2 20190527 Z DH1212/TAIRG    80/UGIRG    16/PLIRG 29.93/UDIRG   140/USIRG    11/TWIRG    81/WCIRG -9999
.E MQTT2 20190527 Z DH1206/TAIRG/DIN06/   81/   81
.E MQTT2 20190527 Z DH1206/PLIRG/DIN06/29.90/29.90
.E MQTT2 20190527 Z DH1206/USIRG/DIN06/   19/   21
.E MQTT2 20190527 Z DH1206/UDIRG/DIN06/  143/  141
.E MQTT2 20190527 Z DH1206/UGIRG/DIN06/   23/   23
.E MQTT2 20190527 Z DH1206/TWIRG/DIN06/   82/   82
.E IRDT2 20190527 Z DH1200/TAIRG/DIN06/   79/   80/   80
.E IRDT2 20190527 Z DH1200/PLIRG/DIN06/29.93/29.93/29.94
.E IRDT2 20190527 Z DH1200/USIRG/DIN06/   15/   15/   12
.E IRDT2 20190527 Z DH1200/UDIRG/DIN06/  157/  157/  158
.E IRDT2 20190527 Z DH1200/UGIRG/DIN06/   19/   17/   16
.E IRDT2 20190527 Z DH1200/TWIRG/DIN06/   81/   81/   81
.E BABT2 20190527 Z DH1206/TAIRG/DIN06/   79/   79
.E BABT2 20190527 Z DH1206/PLIRG/DIN06/29.93/29.93
.E BABT2 20190527 Z DH1206/USIRG/DIN06/   14/   15
.E BABT2 20190527 Z DH1206/UDIRG/DIN06/  147/  148
.E BABT2 20190527 Z DH1206/UGIRG/DIN06/   17/   18
.E BABT2 20190527 Z DH1206/TWIRG/DIN06/   80/   80
.E RSJT2 20190527 Z DH1206/TAIRG/DIN06/   79/   79
.E RSJT2 20190527 Z DH1206/PLIRG/DIN06/29.90/29.91
.E RSJT2 20190527 Z DH1206/USIRG/DIN06/   16/   13
.E RSJT2 20190527 Z DH1206/UDIRG/DIN06/  142/  140
.E RSJT2 20190527 Z DH1206/UGIRG/DIN06/   18/   18
.E RSJT2 20190527 Z DH1206/TWIRG/DIN06/   81/   81
.E PMNT2 20190527 Z DH1206/TAIRG/DIN06/   80/   80
.E PMNT2 20190527 Z DH1206/PLIRG/DIN06/29.91/29.91
.E PMNT2 20190527 Z DH1206/TWIRG/DIN06/   83/   83
.E RLIT2 20190527 Z DH1206/TAIRG/DIN06/   86/   86
.E RLIT2 20190527 Z DH1206/PLIRG/DIN06/29.91/29.91
.E RLIT2 20190527 Z DH1206/USIRG/DIN06/   12/   17
.E RLIT2 20190527 Z DH1206/UDIRG/DIN06/  147/  148
.E RLIT2 20190527 Z DH1206/UGIRG/DIN06/   18/   20
.E RLIT2 20190527 Z DH1206/TWIRG/DIN06/   80/   80
.E PCGT2 20190527 Z DH1200/TAIRG/DIN06/   79/   79
.E PCGT2 20190527 Z DH1200/PLIRG/DIN06/29.93/29.93
.E PCGT2 20190527 Z DH1200/USIRG/DIN06/   13/   13
.E PCGT2 20190527 Z DH1200/UDIRG/DIN06/  158/  160
.E PCGT2 20190527 Z DH1200/UGIRG/DIN06/   15/   15
.E BZST2 20190527 Z DH1206/TAIRG/DIN06/   79/   79
.E BZST2 20190527 Z DH1206/PLIRG/DIN06/29.90/29.90
.E BZST2 20190527 Z DH1206/USIRG/DIN06/   13/   15
.E BZST2 20190527 Z DH1206/UDIRG/DIN06/  163/  163
.E BZST2 20190527 Z DH1206/UGIRG/DIN06/   17/   17
.E BZST2 20190527 Z DH1206/TWIRG/DIN06/   79/   79
.E PTIT2 20190527 Z DH1206/TAIRG/DIN06/   79/   79
.E PTIT2 20190527 Z DH1206/PLIRG/DIN06/29.92/29.92
.E PTIT2 20190527 Z DH1206/USIRG/DIN06/   10/    9
.E PTIT2 20190527 Z DH1206/UDIRG/DIN06/  153/  153
.E PTIT2 20190527 Z DH1206/UGIRG/DIN06/   14/   15
.E PTIT2 20190527 Z DH1206/TWIRG/DIN06/   82/   82
.E CHSV3 20190527 Z DH1206/TAIRG/DIN06/   77/   77
.E CHSV3 20190527 Z DH1206/PLIRG/DIN06/29.96/29.96
.E CHSV3 20190527 Z DH1206/USIRG/DIN06/    3/    3
.E CHSV3 20190527 Z DH1206/UDIRG/DIN06/   92/   56
.E CHSV3 20190527 Z DH1206/UGIRG/DIN06/    6/    7
.E CHSV3 20190527 Z DH1206/TWIRG/DIN06/   82/   82
.E LAMV3 20190527 Z DH1212/TAIRG/DIN06/   80/   80
.E LAMV3 20190527 Z DH1212/PLIRG/DIN06/30.01/30.01
.E LAMV3 20190527 Z DH1212/TWIRG/DIN06/   82/   82
.A LTBV3 20190527 Z DH1218/TAIRP    78/UGIRP     8/PLIRP 29.98/UDIRP   115/USIRP     1/TWIRP    84/WCIRP -9999
.A LTBV3 20190527 Z DH1212/TAIRG    78/UGIRG     7/PLIRG 29.98/UDIRG    73/USIRG     4/TWIRG    84/WCIRG -9999
.A CHAV3 20190527 Z DH1212/TAIRG    81/UGIRG -9999/PLIRG 29.97/UDIRG -9999/USIRG -9999/TWIRG -9999/WCIRG -9999
.E CLBP4 20190527 Z DH1206/TAIRG/DIN06/   81/   80
.E CLBP4 20190527 Z DH1206/PLIRG/DIN06/29.98/29.98
.E CLBP4 20190527 Z DH1206/TWIRG/DIN06/   83/   83
.E ESPP4 20190527 Z DH1206/TAIRG/DIN06/   81/   82
.E ESPP4 20190527 Z DH1206/PLIRG/DIN06/29.98/29.98
.E ESPP4 20190527 Z DH1206/USIRG/DIN06/    5/    7
.E ESPP4 20190527 Z DH1206/UDIRG/DIN06/   95/   97
.E ESPP4 20190527 Z DH1206/UGIRG/DIN06/    9/    9
.E ESPP4 20190527 Z DH1206/TWIRG/DIN06/   82/   82
.E YABP4 20190527 Z DH1212/TAIRG/DIN06/   82/   83
.E SJNP4 20190527 Z DH1212/TAIRG/DIN06/   81/   81
.E SJNP4 20190527 Z DH1212/PLIRG/DIN06/29.98/29.97
.E SJNP4 20190527 Z DH1212/TWIRG/DIN06/   82/   82
.E AROP4 20190527 Z DH1212/PLIRG/DIN06/30.03/30.03
.E AROP4 20190527 Z DH1212/USIRG/DIN06/    2/    3
.E AROP4 20190527 Z DH1212/UDIRG/DIN06/  119/  122
.E AROP4 20190527 Z DH1212/UGIRG/DIN06/    4/    4
.E AROP4 20190527 Z DH1212/TWIRG/DIN06/   82/   82
.E MGZP4 20190527 Z DH1206/TAIRG/DIN06/   79/   79
.E MGZP4 20190527 Z DH1206/PLIRG/DIN06/29.99/29.99
.E MGZP4 20190527 Z DH1206/TWIRG/DIN06/   83/   83
.E MISP4 20190527 Z DH1212/TAIRG/DIN06/   81/   82
.E MISP4 20190527 Z DH1212/PLIRG/DIN06/29.98/29.98
.E MISP4 20190527 Z DH1212/TWIRG/DIN06/   82/   82



USA.gov is the U.S. government's official web portal to all federal, state and local government web resources and services.